Tres Forquilhas, Brazil
Current Conditions -  °F | °C
As of 9:00 PM on Sunday 21 Dec 2014 (Local Time) from SBCO Reporting Station
Broken Clouds Broken Clouds  
Wind Chill: 70°   Ceiling: 1500
Heat Index: 70°   Visibility: 5mi
Dew Point: 70°   Wind: 5mph
Humidity: 100%   Direction: 320°NW
Pressure: 29.62"   Gusts: NA
Location:  29.59°S, 50.07°W
Report Text: SBCO 212300Z 32004KT 8000 SCT008 BKN015 BKN100 21/21 Q1003
Loading
Personal Weather Stations






























Interactive Weather Map New forecast layout! Learn more

10-Day Weather Forecast

Advertisements
Track Severe Weather on mobile